Portada
METAR-TAF:

METAR-TAF

Aeropuertos :

Savoonga, Alaska, Estados Unidos

latitud: 63-41N, longitud: 170-30W, altitud: 16 m

Observación

El informe se hizo hace 1 hora y 22 minutos, a las 13:23 UTC
Viento 19 kt del noroeste
Temperatura -2°C
Humedad 86%
Presión 1002 hPa
Visibilidad: 12.9 km
Cielo cubierto a una altura de 1400 ft
poca nieve

METAR: PASA 241323Z AUTO 31019KT 8SM -SN OVC014 M02/M04 A2958 RMK AO2 P0000 FZRANO

Hora: 06:45 (14:45 UTC)


TAF: falta

Observaciones y pronósticos meteorológicos de más de 4000 aeropuertos (mensajes METAR y TAF).

Los puntos amarillos y rojos representan las estaciones disponibles.

Ponga el ratón en el punto deseado para ver el nombre de la estación.

Haga clic para ver las observaciones y los pronósticos meteorológicos.

Para cambiar el mapa : haga clic en los botones verdes con una cruz de color negro para hacer un zoom, en el botón verde con un guión para alejar o en las flechas verdes para mapas adyacentes.


METAR-TAF: